Bluffs, Illinois
Current Conditions -  °F | °C
As of 2:15 AM on Sunday 26 Oct 2014 (Local Time) from KPPQ Reporting Station
Clear Clear  
Wind Chill: 56°   Ceiling: Unl
Heat Index: 56°   Visibility: 10mi
Dew Point: 40°   Wind: 5mph
Humidity: 55%   Direction: 30°NNE
Pressure: 30.04"   Gusts: NA
Location:  39.75°N, 90.54°W
Report Text: KPPQ 260715Z AUTO 03004KT 10SM CLR 13/04 A3004 RMK AO2 T01320043
Loading
Personal Weather Stations






























Interactive Weather Map New forecast layout! Learn more

10-Day Weather Forecast

Advertisements
Track Severe Weather on mobile